Winston Salem, NC (27101)

10:48 PM EST on February 09, 2016 (GMT -0500)
UNC School of the Arts | | Change Station
CLOSE
Current Station
Personal Weather Station
Location: Winston-Salem, NC
Elevation: 879 ft
Nearby Weather Stations

Elev 879 ft 36.08 °N, 80.23 °W | Updated 1 minute ago

Partly Cloudy
Partly Cloudy
27.2 °F
Feels Like 21 °F
N
5.0
Wind Variable Wind from WSW
Gusts 9.0 mph

Today
High -- | Low -- °F
--% Chance of Precip.
Yesterday
High -- | Low -- °F
Precip. -- in
Pressure 29.85 in
Visibility 10.0 miles
Clouds Few 4800 ft
Windchill 21 °F
Dew Point 12 °F
Humidity 54%
Rainfall 0.00 in
Snow Depth Not available.
7:15 AM 5:55 PM
Waxing Crescent, 3% visible
METAR KINT 100254Z 28008KT 10SM FEW048 M03/M13 A2983 RMK AO2 SLP108 T10281128 51013
Pressure 29.85 in
Visibility 10.0 miles
Clouds Few 4800 ft
Windchill 21 °F
Dew Point 12 °F
Humidity 54%
Rainfall 0.00 in
Snow Depth Not available.
7:15 AM 5:55 PM
Waxing Crescent, 3% visible
METAR KINT 100254Z 28008KT 10SM FEW048 M03/M13 A2983 RMK AO2 SLP108 T10281128 51013
Winter Storm Nacio, the third winter storm in five days to affect the Northeast, is bringing pockets of locally heavy snow to parts of the Ohio Valley, Appalachians and mid-Atlantic states Tuesday. Winter storm warnings are posted for parts of southern Pennsylvania, southern Ohio and the higher peaks of the Appalachians. Winter weather advisories, generally for lighter snow accumulations, stretch from northeast Alabama and far north Georgia to southern Connecticut and Long Island.

10-Day Weather Forecast

Almanac

Astronomy

Feb. 09, 2016 Rise Set
Actual Time
Civil Twilight
Nautical Twilight
Astronomical Twilight
Moon
Length of Visible Light
Length of Day
Tomorrow will be .
, % of the Moon is Illuminated

Today's Extremes

State Highs State Lows

Community

WunderPhotos

Upload Photos

1,891,792 photos uploaded!

WunderBlog® & News

Nearby

Air Quality

  Air Quality AQ Index Pollutant
Not available.

Snow Depth

Station Depth Elevation

Earthquake Activity

City Distance Mag. Time & Date
Minimum magnitude displayed is 2.5.

Coastal Water Temperatures

Place Temperature

Stations

Nearby Weather Stations

Station Location Temp. Windchill Dew Point Humidity Wind Precip. Elev Updated Type
                   

Watches & Warnings

There are currently no watches in effect.